Terminal Aerodrome Forecast
Issued by NWS

Home | Current Version | Previous Version | Text Only | Print | Product List | Glossary On
Versions: 1 2 3 4 5 6 7 8 9 10 11 12 13 14
000
FTUS42 KMLB 302300
TAFSUA
TAF
KSUA 302321Z 0100/0124 32003KT P6SM VCSH SCT100 BKN250
      TEMPO 0100/0102 5SM SHRA BKN025 OVC050
     FM010200 00000KT P6SM SCT250
     FM011400 30005KT P6SM FEW010 BKN080
     FM011800 06008KT P6SM SCT025 BKN060=

USA.gov is the U.S. government's official web portal to all federal, state and local government web resources and services.